createdAt,value
2018-03-14T00:00:09.958Z,0.00
2018-03-14T00:01:09.911Z,0.00
2018-03-14T00:02:09.884Z,0.00
2018-03-14T00:03:09.809Z,0.00
2018-03-14T00:04:09.761Z,0.00
2018-03-14T00:05:09.710Z,0.00
2018-03-14T00:06:09.657Z,0.00
2018-03-14T00:07:09.633Z,0.00
2018-03-14T00:08:09.557Z,0.00
2018-03-14T00:09:09.510Z,0.00
2018-03-14T00:10:09.459Z,0.00
2018-03-14T00:11:09.407Z,0.00
2018-03-14T00:12:09.384Z,0.00
2018-03-14T00:13:09.308Z,0.00
2018-03-14T00:14:09.257Z,0.00
2018-03-14T00:15:09.211Z,0.00
2018-03-14T00:16:09.158Z,0.00
2018-03-14T00:17:09.130Z,0.00
2018-03-14T00:18:09.058Z,0.00
2018-03-14T00:19:09.008Z,0.00
2018-03-14T00:20:08.958Z,0.00
2018-03-14T00:21:08.905Z,0.00
2018-03-14T00:22:08.879Z,0.00
2018-03-14T00:23:08.806Z,0.00
2018-03-14T00:24:08.756Z,0.00
2018-03-14T00:25:08.710Z,0.00
2018-03-14T00:26:08.655Z,0.00
2018-03-14T00:27:08.630Z,0.00
2018-03-14T00:28:08.562Z,0.00
2018-03-14T00:29:08.508Z,0.00
2018-03-14T00:30:08.458Z,0.00
2018-03-14T00:31:08.406Z,0.00
2018-03-14T00:32:08.377Z,0.00
2018-03-14T00:33:08.308Z,0.00
2018-03-14T00:34:08.259Z,0.00
2018-03-14T00:35:08.205Z,0.00
2018-03-14T00:36:08.157Z,0.00
2018-03-14T00:37:08.130Z,0.00
2018-03-14T00:38:08.057Z,0.00
2018-03-14T00:39:08.006Z,0.00
2018-03-14T00:40:07.955Z,0.00
2018-03-14T00:41:07.905Z,0.00
2018-03-14T00:42:07.877Z,0.00
2018-03-14T00:43:07.807Z,0.00
2018-03-14T00:44:07.750Z,0.00
2018-03-14T00:45:07.703Z,0.00
2018-03-14T00:46:07.655Z,0.00
2018-03-14T00:47:07.626Z,0.00
2018-03-14T00:48:07.550Z,0.00
2018-03-14T00:49:07.502Z,0.00
2018-03-14T00:50:07.452Z,0.00
2018-03-14T00:51:07.400Z,0.00
2018-03-14T00:52:07.373Z,0.00
2018-03-14T00:53:07.302Z,0.00
2018-03-14T00:54:07.251Z,0.00
2018-03-14T00:55:07.225Z,0.00
2018-03-14T00:56:07.150Z,0.00
2018-03-14T00:57:07.126Z,0.00
2018-03-14T00:58:07.049Z,0.00
2018-03-14T00:59:07.004Z,0.00
2018-03-14T01:00:06.950Z,0.00
2018-03-14T01:01:06.898Z,0.00
2018-03-14T01:02:06.871Z,0.00
2018-03-14T01:03:06.802Z,0.00
2018-03-14T01:04:06.750Z,0.00
2018-03-14T01:05:06.694Z,0.00
2018-03-14T01:06:06.646Z,0.00
2018-03-14T01:07:06.619Z,0.00
2018-03-14T01:08:06.547Z,0.00
2018-03-14T01:09:06.493Z,0.00
2018-03-14T01:10:06.451Z,0.00
2018-03-14T01:11:06.403Z,0.00
2018-03-14T01:12:06.375Z,0.00
2018-03-14T01:13:06.297Z,0.00
2018-03-14T01:14:06.244Z,0.00
2018-03-14T01:15:06.196Z,0.00
2018-03-14T01:16:06.148Z,0.00
2018-03-14T01:17:06.117Z,0.00
2018-03-14T01:18:06.051Z,0.00
2018-03-14T01:19:05.994Z,0.00
2018-03-14T01:20:05.945Z,0.00
2018-03-14T01:21:05.896Z,0.00
2018-03-14T01:22:05.879Z,0.00
2018-03-14T01:23:05.792Z,0.00
2018-03-14T01:24:05.746Z,0.00
2018-03-14T01:25:05.691Z,0.00
2018-03-14T01:26:05.645Z,0.00
2018-03-14T01:27:05.593Z,0.00
2018-03-14T01:28:05.566Z,0.00
2018-03-14T01:29:05.493Z,0.00
2018-03-14T01:30:05.439Z,0.00
2018-03-14T01:31:05.396Z,0.00
2018-03-14T01:32:05.342Z,0.00
2018-03-14T01:33:05.312Z,0.00
2018-03-14T01:34:05.243Z,0.00
2018-03-14T01:35:05.187Z,0.00
2018-03-14T01:36:05.139Z,0.00
2018-03-14T01:37:05.089Z,0.00
2018-03-14T01:38:05.064Z,0.00
2018-03-14T01:39:04.987Z,0.00
2018-03-14T01:40:04.939Z,0.00
2018-03-14T01:41:04.889Z,0.00
2018-03-14T01:42:04.838Z,0.00
2018-03-14T01:43:04.812Z,0.00
2018-03-14T01:44:04.739Z,0.00
2018-03-14T01:45:04.686Z,0.00
2018-03-14T01:46:04.638Z,0.00
2018-03-14T01:47:04.586Z,0.00
2018-03-14T01:48:04.564Z,0.00
2018-03-14T01:49:04.489Z,0.00
2018-03-14T01:50:04.434Z,0.00
2018-03-14T01:51:04.388Z,0.00
2018-03-14T01:52:04.337Z,0.00
2018-03-14T01:53:04.310Z,0.00
2018-03-14T01:54:04.234Z,0.00
2018-03-14T01:55:04.188Z,0.00
2018-03-14T01:56:04.137Z,0.00
2018-03-14T01:57:04.091Z,0.00
2018-03-14T01:58:04.071Z,0.00
2018-03-14T01:59:03.987Z,0.00
2018-03-14T02:00:03.936Z,0.00
2018-03-14T02:01:03.884Z,0.00
2018-03-14T02:02:03.840Z,0.00
2018-03-14T02:03:03.804Z,0.00
2018-03-14T02:04:03.734Z,0.00
2018-03-14T02:05:03.689Z,0.00
2018-03-14T02:06:03.634Z,0.00
2018-03-14T02:07:03.581Z,0.00
2018-03-14T02:08:03.559Z,0.00
2018-03-14T02:09:03.481Z,0.00
2018-03-14T02:10:03.434Z,0.00
2018-03-14T02:11:03.382Z,0.00
2018-03-14T02:12:03.338Z,0.00
2018-03-14T02:13:03.304Z,0.00
2018-03-14T02:14:03.227Z,0.00
2018-03-14T02:15:03.179Z,0.00
2018-03-14T02:16:03.131Z,0.00
2018-03-14T02:17:03.078Z,0.00
2018-03-14T02:18:03.047Z,0.00
2018-03-14T02:19:02.976Z,0.00
2018-03-14T02:20:02.923Z,0.00
2018-03-14T02:21:02.875Z,0.00
2018-03-14T02:22:02.826Z,0.00
2018-03-14T02:23:02.794Z,0.00
2018-03-14T02:24:02.724Z,0.00
2018-03-14T02:25:02.672Z,0.00
2018-03-14T02:26:02.620Z,0.00
2018-03-14T02:27:02.569Z,0.00
2018-03-14T02:28:02.546Z,0.00
2018-03-14T02:29:02.471Z,0.00
2018-03-14T02:30:02.419Z,0.00
2018-03-14T02:31:02.369Z,0.00
2018-03-14T02:32:02.341Z,0.00
2018-03-14T02:33:02.306Z,0.00
2018-03-14T02:34:02.215Z,0.00
2018-03-14T02:35:02.166Z,0.00
2018-03-14T02:36:02.115Z,0.00
2018-03-14T02:37:02.062Z,0.00
2018-03-14T02:38:02.037Z,0.00
2018-03-14T02:39:01.964Z,0.00
2018-03-14T02:40:01.917Z,0.00
2018-03-14T02:41:01.866Z,0.00
2018-03-14T02:42:01.811Z,0.00
2018-03-14T02:43:01.783Z,0.00
2018-03-14T02:44:01.710Z,0.00
2018-03-14T02:45:01.661Z,0.00
2018-03-14T02:46:01.609Z,0.00
2018-03-14T02:47:01.558Z,0.00
2018-03-14T02:48:01.532Z,0.00
2018-03-14T02:49:01.457Z,0.00
2018-03-14T02:50:01.409Z,0.00
2018-03-14T02:51:01.357Z,0.00
2018-03-14T02:52:01.307Z,0.00
2018-03-14T02:53:01.281Z,0.00
2018-03-14T02:54:01.206Z,0.00
2018-03-14T02:55:01.155Z,0.00
2018-03-14T02:56:01.152Z,0.00
2018-03-14T02:57:01.055Z,0.00
2018-03-14T02:58:01.036Z,0.00
2018-03-14T02:59:00.953Z,0.00
2018-03-14T03:00:00.904Z,0.00
2018-03-14T03:01:00.849Z,0.00
2018-03-14T03:02:00.801Z,0.00
2018-03-14T03:03:00.776Z,0.00
2018-03-14T03:04:00.704Z,0.00
2018-03-14T03:05:00.652Z,0.00
2018-03-14T03:06:00.601Z,0.00
2018-03-14T03:07:00.549Z,0.00
2018-03-14T03:08:00.521Z,0.00
2018-03-14T03:09:00.449Z,0.00
2018-03-14T03:10:00.399Z,0.00
2018-03-14T03:11:00.347Z,0.00
2018-03-14T03:12:00.301Z,0.00
2018-03-14T03:13:00.269Z,0.00
2018-03-14T03:14:00.198Z,0.00
2018-03-14T03:15:00.145Z,0.00
2018-03-14T03:16:00.096Z,0.00
2018-03-14T03:17:00.044Z,0.00
2018-03-14T03:18:00.021Z,0.00
2018-03-14T03:18:59.942Z,0.00
2018-03-14T03:19:59.893Z,0.00
2018-03-14T03:20:59.838Z,0.00
2018-03-14T03:21:59.791Z,0.00
2018-03-14T03:22:59.767Z,0.00
2018-03-14T03:23:59.691Z,0.00
2018-03-14T03:24:59.636Z,0.00
2018-03-14T03:25:59.589Z,0.00
2018-03-14T03:26:59.537Z,0.00
2018-03-14T03:27:59.512Z,0.00
2018-03-14T03:28:59.437Z,0.00
2018-03-14T03:29:59.389Z,0.00
2018-03-14T03:30:59.341Z,0.00
2018-03-14T03:31:59.286Z,0.00
2018-03-14T03:32:59.258Z,0.00
2018-03-14T03:33:59.183Z,0.00
2018-03-14T03:34:59.134Z,0.00
2018-03-14T03:35:59.082Z,0.00
2018-03-14T03:36:59.030Z,0.00
2018-03-14T03:37:59.006Z,0.00
2018-03-14T03:38:58.932Z,0.00
2018-03-14T03:39:58.881Z,0.00
2018-03-14T03:40:58.834Z,0.00
2018-03-14T03:41:58.779Z,0.00
2018-03-14T03:42:58.757Z,0.00
2018-03-14T03:43:58.679Z,0.00
2018-03-14T03:44:58.632Z,0.00
2018-03-14T03:45:58.579Z,0.00
2018-03-14T03:46:58.527Z,0.00
2018-03-14T03:47:58.496Z,0.00
2018-03-14T03:48:58.422Z,0.00
2018-03-14T03:49:58.372Z,0.00
2018-03-14T03:50:58.323Z,0.00
2018-03-14T03:51:58.272Z,0.00
2018-03-14T03:52:58.245Z,0.00
2018-03-14T03:53:58.175Z,0.00
2018-03-14T03:54:58.122Z,0.00
2018-03-14T03:55:58.073Z,0.00
2018-03-14T03:56:58.020Z,0.00
2018-03-14T03:57:57.993Z,0.00
2018-03-14T03:58:57.919Z,0.00
2018-03-14T03:59:57.871Z,0.00
2018-03-14T04:00:57.815Z,0.00
2018-03-14T04:01:57.772Z,0.00
2018-03-14T04:02:57.740Z,0.00
2018-03-14T04:03:57.666Z,0.00
2018-03-14T04:04:57.610Z,0.00
2018-03-14T04:05:57.563Z,0.00
2018-03-14T04:06:57.515Z,0.00
2018-03-14T04:07:57.487Z,0.00
2018-03-14T04:08:57.413Z,0.00
2018-03-14T04:09:57.366Z,0.00
2018-03-14T04:10:57.311Z,0.00
2018-03-14T04:11:57.262Z,0.00
2018-03-14T04:12:57.237Z,0.00
2018-03-14T04:13:57.163Z,0.00
2018-03-14T04:14:57.110Z,0.00
2018-03-14T04:15:57.059Z,0.00
2018-03-14T04:16:57.006Z,0.00
2018-03-14T04:17:56.960Z,0.00
2018-03-14T04:18:56.929Z,0.00
2018-03-14T04:19:56.859Z,0.00
2018-03-14T04:20:56.809Z,0.00
2018-03-14T04:21:56.754Z,0.00
2018-03-14T04:22:56.705Z,0.00
2018-03-14T04:23:56.732Z,0.00
2018-03-14T04:24:56.611Z,0.00
2018-03-14T04:25:56.556Z,0.00
2018-03-14T04:26:56.503Z,0.00
2018-03-14T04:27:56.453Z,0.00
2018-03-14T04:28:56.424Z,0.00
2018-03-14T04:29:56.354Z,0.00
2018-03-14T04:30:56.299Z,0.00
2018-03-14T04:31:56.251Z,0.00
2018-03-14T04:32:56.200Z,0.00
2018-03-14T04:33:56.173Z,0.00
2018-03-14T04:34:56.094Z,0.00
2018-03-14T04:35:56.048Z,0.00
2018-03-14T04:36:55.995Z,0.00
2018-03-14T04:37:55.945Z,0.00
2018-03-14T04:38:55.919Z,0.00
2018-03-14T04:39:55.849Z,0.00
2018-03-14T04:40:55.797Z,0.00
2018-03-14T04:41:55.746Z,0.00
2018-03-14T04:42:55.692Z,0.00
2018-03-14T04:43:55.666Z,0.00
2018-03-14T04:44:55.593Z,0.00
2018-03-14T04:45:55.542Z,0.00
2018-03-14T04:46:55.488Z,0.00
2018-03-14T04:47:55.438Z,0.00
2018-03-14T04:48:55.417Z,0.00
2018-03-14T04:49:55.340Z,0.00
2018-03-14T04:50:55.290Z,0.00
2018-03-14T04:51:55.239Z,0.00
2018-03-14T04:52:55.184Z,0.00
2018-03-14T04:53:55.163Z,0.00
2018-03-14T04:54:55.089Z,0.00
2018-03-14T04:55:55.040Z,0.00
2018-03-14T04:56:54.985Z,0.00
2018-03-14T04:57:54.938Z,0.00
2018-03-14T04:58:54.906Z,0.00
2018-03-14T04:59:54.834Z,0.00
2018-03-14T05:00:54.786Z,0.00
2018-03-14T05:01:54.736Z,0.00
2018-03-14T05:02:54.685Z,0.00
2018-03-14T05:03:54.657Z,0.00
2018-03-14T05:04:54.582Z,0.00
2018-03-14T05:05:54.531Z,0.00
2018-03-14T05:06:54.485Z,0.00
2018-03-14T05:07:54.434Z,0.00
2018-03-14T05:08:54.408Z,0.00
2018-03-14T05:09:54.334Z,0.00
2018-03-14T05:10:54.282Z,0.00
2018-03-14T05:11:54.232Z,0.00
2018-03-14T05:12:54.181Z,0.00
2018-03-14T05:13:54.163Z,0.00
2018-03-14T05:14:54.080Z,0.00
2018-03-14T05:15:54.030Z,0.00
2018-03-14T05:16:53.980Z,0.00
2018-03-14T05:17:53.931Z,0.00
2018-03-14T05:18:53.904Z,0.00
2018-03-14T05:19:53.830Z,0.00
2018-03-14T05:20:53.778Z,4.00
2018-03-14T05:21:53.729Z,4.00
2018-03-14T05:22:53.682Z,0.00
2018-03-14T05:23:53.648Z,0.00
2018-03-14T05:24:53.577Z,4.00
2018-03-14T05:25:53.526Z,4.00
2018-03-14T05:26:53.479Z,4.00
2018-03-14T05:27:53.426Z,8.00
2018-03-14T05:28:53.398Z,12.00
2018-03-14T05:29:53.329Z,8.00
2018-03-14T05:30:53.279Z,8.00
2018-03-14T05:31:53.224Z,12.00
2018-03-14T05:32:53.175Z,16.00
2018-03-14T05:33:53.147Z,20.00
2018-03-14T05:34:53.081Z,24.00
2018-03-14T05:35:53.023Z,32.00
2018-03-14T05:36:52.971Z,36.00
2018-03-14T05:37:52.924Z,32.00
2018-03-14T05:38:52.898Z,36.00
2018-03-14T05:39:52.829Z,48.00
2018-03-14T05:40:52.774Z,52.00
2018-03-14T05:41:52.721Z,52.00
2018-03-14T05:42:52.670Z,48.00
2018-03-14T05:43:52.644Z,44.00
2018-03-14T05:44:52.571Z,60.00
2018-03-14T05:45:52.521Z,72.00
2018-03-14T05:46:52.475Z,76.00
2018-03-14T05:47:52.423Z,84.00
2018-03-14T05:48:52.392Z,104.00
2018-03-14T05:49:52.321Z,116.00
2018-03-14T05:50:52.278Z,124.00
2018-03-14T05:51:52.220Z,128.00
2018-03-14T05:52:52.173Z,136.00
2018-03-14T05:53:52.144Z,152.00
2018-03-14T05:54:52.073Z,156.00
2018-03-14T05:55:52.020Z,152.00
2018-03-14T05:56:51.969Z,136.00
2018-03-14T05:57:51.919Z,128.00
2018-03-14T05:58:51.894Z,120.00
2018-03-14T05:59:51.818Z,88.00
2018-03-14T06:00:51.769Z,68.00
2018-03-14T06:01:51.719Z,52.00
2018-03-14T06:02:51.669Z,44.00
2018-03-14T06:03:51.641Z,44.00
2018-03-14T06:04:51.571Z,56.00
2018-03-14T06:05:51.526Z,48.00
2018-03-14T06:06:51.469Z,68.00
2018-03-14T06:07:51.419Z,120.00
2018-03-14T06:08:51.402Z,144.00
2018-03-14T06:09:51.320Z,180.00
2018-03-14T06:10:51.270Z,176.00
2018-03-14T06:11:51.221Z,192.00
2018-03-14T06:12:51.173Z,220.00
2018-03-14T06:13:51.143Z,280.00
2018-03-14T06:14:51.067Z,292.00
2018-03-14T06:15:51.022Z,304.00
2018-03-14T06:16:50.975Z,276.00
2018-03-14T06:17:50.920Z,264.00
2018-03-14T06:18:50.891Z,252.00
2018-03-14T06:19:50.819Z,260.00
2018-03-14T06:20:50.767Z,268.00
2018-03-14T06:21:50.720Z,256.00
2018-03-14T06:22:50.667Z,248.00
2018-03-14T06:23:50.639Z,260.00
2018-03-14T06:24:50.568Z,256.00
2018-03-14T06:25:50.516Z,264.00
2018-03-14T06:26:50.465Z,280.00
2018-03-14T06:27:50.418Z,324.00
2018-03-14T06:28:50.386Z,408.00
2018-03-14T06:29:50.351Z,492.00
2018-03-14T06:30:50.264Z,568.00
2018-03-14T06:31:50.216Z,580.00
2018-03-14T06:32:50.163Z,592.00
2018-03-14T06:33:50.142Z,628.00
2018-03-14T06:34:50.064Z,640.00
2018-03-14T06:35:50.016Z,596.00
2018-03-14T06:36:49.962Z,600.00
2018-03-14T06:37:49.913Z,616.00
2018-03-14T06:40:21.446Z,592.00
2018-03-14T06:41:21.371Z,624.00
2018-03-14T06:42:21.328Z,680.00
2018-03-14T06:43:21.271Z,664.00
2018-03-14T06:44:21.243Z,736.00
2018-03-14T06:45:21.172Z,788.00
2018-03-14T06:46:21.123Z,808.00
2018-03-14T06:47:21.067Z,832.00
2018-03-14T06:48:21.020Z,860.00
2018-03-14T06:49:20.990Z,924.00
2018-03-14T06:50:20.920Z,984.00
2018-03-14T06:51:20.879Z,1092.00
2018-03-14T06:52:20.817Z,1188.00
2018-03-14T06:53:20.766Z,1236.00
2018-03-14T06:54:20.740Z,1168.00
2018-03-14T06:55:20.662Z,1044.00
2018-03-14T06:56:20.613Z,1064.00
2018-03-14T06:57:20.563Z,1248.00
2018-03-14T06:58:20.513Z,1412.00
2018-03-14T06:59:20.492Z,1528.00
2018-03-14T07:00:20.415Z,1620.00
2018-03-14T07:01:20.362Z,1684.00
2018-03-14T07:02:20.312Z,1704.00
2018-03-14T07:03:20.261Z,1604.00
2018-03-14T07:04:20.235Z,1488.00
2018-03-14T07:05:20.160Z,1532.00
2018-03-14T07:06:20.110Z,1672.00
2018-03-14T07:07:20.059Z,1840.00
2018-03-14T07:08:20.011Z,1936.00
2018-03-14T07:09:19.987Z,1976.00
2018-03-14T07:10:19.910Z,1984.00
2018-03-14T07:11:19.858Z,1884.00
2018-03-14T07:12:19.813Z,1772.00
2018-03-14T07:13:19.757Z,1844.00
2018-03-14T07:14:19.747Z,2008.00
2018-03-14T07:15:19.658Z,2120.00
2018-03-14T07:16:19.606Z,2200.00
2018-03-14T07:17:19.556Z,2196.00
2018-03-14T07:18:19.509Z,2136.00
2018-03-14T07:19:19.456Z,2260.00
2018-03-14T07:20:19.427Z,2380.00
2018-03-14T07:21:19.356Z,2520.00
2018-03-14T07:22:19.309Z,2588.00
2018-03-14T07:23:19.257Z,2596.00
2018-03-14T07:24:19.206Z,2672.00
2018-03-14T07:25:19.181Z,2728.00
2018-03-14T07:26:19.109Z,2720.00
2018-03-14T07:27:19.055Z,2732.00
2018-03-14T07:28:19.005Z,2800.00
2018-03-14T07:29:18.958Z,2832.00
2018-03-14T07:30:18.927Z,2832.00
2018-03-14T07:31:18.857Z,2836.00
2018-03-14T07:32:18.805Z,2888.00
2018-03-14T07:33:18.757Z,2880.00
2018-03-14T07:34:18.711Z,2892.00
2018-03-14T07:35:18.680Z,3024.00
2018-03-14T07:36:18.605Z,3192.00
2018-03-14T07:37:18.557Z,3256.00
2018-03-14T07:38:18.509Z,3240.00
2018-03-14T07:39:18.459Z,3476.00
2018-03-14T07:40:18.434Z,3832.00
2018-03-14T07:41:18.357Z,3956.00
2018-03-14T07:42:18.307Z,3920.00
2018-03-14T07:43:18.257Z,4064.00
2018-03-14T07:44:18.206Z,4052.00
2018-03-14T07:45:18.182Z,4048.00
2018-03-14T07:46:18.109Z,4260.00
2018-03-14T07:47:18.058Z,4264.00
2018-03-14T07:48:18.009Z,4380.00
2018-03-14T07:49:17.964Z,4464.00
2018-03-14T07:50:17.933Z,4500.00
2018-03-14T07:51:17.860Z,4380.00
2018-03-14T07:52:17.808Z,4564.00
2018-03-14T07:53:17.764Z,4548.00
2018-03-14T07:54:17.713Z,4544.00
2018-03-14T07:55:17.687Z,4664.00
2018-03-14T07:56:17.609Z,4700.00
2018-03-14T07:57:17.565Z,4592.00
2018-03-14T07:58:17.517Z,4636.00
2018-03-14T07:59:17.464Z,4900.00
2018-03-14T08:00:17.439Z,4768.00
2018-03-14T08:01:17.366Z,4764.00
2018-03-14T08:02:17.316Z,5024.00
2018-03-14T08:03:17.264Z,5004.00
2018-03-14T08:04:17.216Z,5020.00
2018-03-14T08:05:17.188Z,5032.00
2018-03-14T08:06:17.119Z,5140.00
2018-03-14T08:07:17.071Z,5224.00
2018-03-14T08:08:17.025Z,5132.00
2018-03-14T08:09:16.968Z,5120.00
2018-03-14T08:10:16.941Z,5012.00
2018-03-14T08:11:16.873Z,5304.00
2018-03-14T08:12:16.822Z,5456.00
2018-03-14T08:13:16.771Z,5620.00
2018-03-14T08:14:16.721Z,5508.00
2018-03-14T08:15:16.695Z,5520.00
2018-03-14T08:16:16.623Z,5684.00
2018-03-14T08:17:16.618Z,5608.00
2018-03-14T08:18:16.531Z,5432.00
2018-03-14T08:19:16.478Z,5420.00
2018-03-14T08:20:16.466Z,5360.00
2018-03-14T08:21:16.376Z,5588.00
2018-03-14T08:22:16.333Z,5668.00
2018-03-14T08:23:16.285Z,5500.00
2018-03-14T08:24:16.235Z,5364.00
2018-03-14T08:25:16.205Z,5740.00
2018-03-14T08:26:16.133Z,5988.00
2018-03-14T08:27:16.085Z,5828.00
2018-03-14T08:28:16.037Z,5432.00
2018-03-14T08:29:15.991Z,5032.00
2018-03-14T08:30:15.967Z,5440.00
2018-03-14T08:31:15.889Z,5780.00
2018-03-14T08:32:15.844Z,5808.00
2018-03-14T08:33:15.791Z,6024.00
2018-03-14T08:34:15.745Z,5852.00
2018-03-14T08:35:15.693Z,5160.00
2018-03-14T08:36:15.668Z,4872.00
2018-03-14T08:37:15.630Z,5140.00
2018-03-14T08:38:15.546Z,5916.00
2018-03-14T08:39:15.498Z,6628.00
2018-03-14T08:40:15.453Z,6652.00
2018-03-14T08:41:15.424Z,6604.00
2018-03-14T08:42:15.358Z,6436.00
2018-03-14T08:43:15.303Z,6088.00
2018-03-14T08:44:15.254Z,5676.00
2018-03-14T08:45:15.208Z,5336.00
2018-03-14T08:46:15.189Z,5456.00
2018-03-14T08:47:15.110Z,5756.00
2018-03-14T08:48:15.060Z,5964.00
2018-03-14T08:49:15.009Z,5768.00
2018-03-14T08:50:14.964Z,5304.00
2018-03-14T08:51:14.934Z,5220.00
2018-03-14T08:52:22.587Z,5472.00
2018-03-14T08:53:14.818Z,5912.00
2018-03-14T08:54:14.769Z,6856.00
2018-03-14T08:55:14.715Z,7248.00
2018-03-14T08:56:14.691Z,7316.00
2018-03-14T08:57:14.621Z,7216.00
2018-03-14T08:58:14.571Z,7312.00
2018-03-14T08:59:14.522Z,7060.00
2018-03-14T09:00:14.471Z,6860.00
2018-03-14T09:01:14.448Z,6780.00
2018-03-14T09:02:14.378Z,6904.00
2018-03-14T09:03:14.328Z,6992.00
2018-03-14T09:04:14.278Z,7076.00
2018-03-14T09:05:14.236Z,7072.00
2018-03-14T09:06:14.204Z,7012.00
2018-03-14T09:07:14.131Z,7228.00
2018-03-14T09:08:14.084Z,7652.00
2018-03-14T09:09:14.040Z,7512.00
2018-03-14T09:10:13.985Z,7416.00
2018-03-14T09:11:14.009Z,7416.00
2018-03-14T09:12:13.892Z,7192.00
2018-03-14T09:13:13.846Z,7128.00
2018-03-14T09:14:13.796Z,7444.00
2018-03-14T09:15:13.745Z,7744.00
2018-03-14T09:16:13.718Z,7732.00
2018-03-14T09:17:13.651Z,7444.00
2018-03-14T09:18:13.599Z,7516.00
2018-03-14T09:19:13.548Z,7368.00
2018-03-14T09:20:13.503Z,7308.00
2018-03-14T09:21:13.477Z,7152.00
2018-03-14T09:22:13.406Z,7044.00
2018-03-14T09:23:13.352Z,6748.00
2018-03-14T09:24:13.307Z,5920.00
2018-03-14T09:25:13.263Z,5624.00
2018-03-14T09:26:13.246Z,6052.00
2018-03-14T09:27:13.164Z,5888.00
2018-03-14T09:28:13.113Z,6040.00
2018-03-14T09:29:13.066Z,6292.00
2018-03-14T09:30:13.020Z,6608.00
2018-03-14T09:31:12.995Z,6644.00
2018-03-14T09:32:12.925Z,6704.00
2018-03-14T09:33:12.901Z,6984.00
2018-03-14T09:34:12.826Z,7348.00
2018-03-14T09:35:12.783Z,7596.00
2018-03-14T09:36:12.755Z,7760.00
2018-03-14T09:37:12.684Z,8028.00
2018-03-14T09:38:12.635Z,8116.00
2018-03-14T09:39:12.587Z,7948.00
2018-03-14T09:40:12.535Z,7808.00
2018-03-14T09:41:12.509Z,8104.00
2018-03-14T09:42:12.440Z,8160.00
2018-03-14T09:43:12.389Z,7900.00
2018-03-14T09:44:12.347Z,7776.00
2018-03-14T09:45:12.316Z,7648.00
2018-03-14T09:46:12.272Z,7596.00
2018-03-14T09:47:12.199Z,7596.00
2018-03-14T09:48:12.148Z,7588.00
2018-03-14T09:49:12.102Z,7412.00
2018-03-14T09:50:12.055Z,7148.00
2018-03-14T09:51:12.028Z,6804.00
2018-03-14T09:52:11.961Z,6428.00
2018-03-14T09:53:11.908Z,6284.00
2018-03-14T09:54:11.909Z,6104.00
2018-03-14T09:55:11.844Z,5776.00
2018-03-14T09:56:11.797Z,5364.00
2018-03-14T09:57:11.731Z,5032.00
2018-03-14T09:58:11.668Z,4972.00
2018-03-14T09:59:11.622Z,5100.00
2018-03-14T10:00:11.572Z,5424.00
2018-03-14T10:01:11.549Z,5856.00
2018-03-14T10:02:11.479Z,6452.00
2018-03-14T10:03:11.426Z,6984.00
2018-03-14T10:04:11.378Z,7364.00
2018-03-14T10:05:11.333Z,7680.00
2018-03-14T10:07:42.895Z,8256.00
2018-03-14T10:08:42.819Z,8336.00
2018-03-14T10:09:42.764Z,8424.00
2018-03-14T10:10:42.718Z,8664.00
2018-03-14T10:11:42.694Z,8848.00
2018-03-14T10:12:42.623Z,8876.00
2018-03-14T10:13:42.576Z,8964.00
2018-03-14T10:14:42.534Z,8964.00
2018-03-14T10:15:42.477Z,9096.00
2018-03-14T10:16:42.450Z,9332.00
2018-03-14T10:17:42.378Z,9416.00
2018-03-14T10:18:42.332Z,9488.00
2018-03-14T10:19:42.285Z,9672.00
2018-03-14T10:20:42.237Z,9600.00
2018-03-14T10:21:42.211Z,9336.00
2018-03-14T10:22:42.142Z,9464.00
2018-03-14T10:23:42.091Z,9592.00
2018-03-14T10:24:42.042Z,9736.00
2018-03-14T10:25:42.062Z,10032.00
2018-03-14T10:26:41.976Z,9976.00
2018-03-14T10:27:41.901Z,9820.00
2018-03-14T10:28:41.853Z,9624.00
2018-03-14T10:29:41.813Z,9400.00
2018-03-14T10:30:41.760Z,9260.00
2018-03-14T10:31:41.729Z,9280.00
2018-03-14T10:32:41.657Z,9128.00
2018-03-14T10:33:41.618Z,8964.00
2018-03-14T10:34:41.566Z,8852.00
2018-03-14T10:35:41.516Z,8692.00
2018-03-14T10:36:41.492Z,8496.00
2018-03-14T10:37:41.420Z,8448.00
2018-03-14T10:38:41.372Z,8492.00
2018-03-14T10:39:41.325Z,8448.00
2018-03-14T10:40:41.281Z,8404.00
2018-03-14T10:41:41.255Z,8352.00
2018-03-14T10:42:41.186Z,8260.00
2018-03-14T10:43:41.135Z,8284.00
2018-03-14T10:44:41.085Z,8076.00
2018-03-14T10:45:41.042Z,8184.00
2018-03-14T10:46:41.011Z,8380.00
2018-03-14T10:47:40.950Z,8688.00
2018-03-14T10:48:40.896Z,8896.00
2018-03-14T10:49:40.851Z,8596.00
2018-03-14T10:50:40.802Z,8616.00
2018-03-14T10:51:40.784Z,8984.00
2018-03-14T10:52:40.709Z,9204.00
2018-03-14T10:53:40.671Z,9468.00
2018-03-14T10:54:40.613Z,9452.00
2018-03-14T10:55:40.567Z,9088.00
2018-03-14T10:56:40.541Z,9072.00
2018-03-14T10:57:40.473Z,9096.00
2018-03-14T10:58:40.425Z,9320.00
2018-03-14T10:59:40.378Z,9348.00
2018-03-14T11:00:40.330Z,9240.00
2018-03-14T11:01:40.305Z,8948.00
2018-03-14T11:02:40.239Z,8968.00
2018-03-14T11:03:40.198Z,8968.00
2018-03-14T11:04:40.146Z,9288.00
2018-03-14T11:05:40.095Z,9964.00
2018-03-14T11:06:40.075Z,10424.00
2018-03-14T11:07:40.003Z,10304.00
2018-03-14T11:08:39.960Z,9664.00
2018-03-14T11:09:39.911Z,9380.00
2018-03-14T11:10:39.872Z,9388.00
2018-03-14T11:11:39.854Z,9440.00
2018-03-14T11:12:39.769Z,9676.00
2018-03-14T11:13:39.725Z,9412.00
2018-03-14T11:14:39.676Z,8744.00
2018-03-14T11:15:39.632Z,8844.00
2018-03-14T11:16:39.601Z,8648.00
2018-03-14T11:17:39.562Z,8420.00
2018-03-14T11:18:39.496Z,8356.00
2018-03-14T11:19:39.440Z,8164.00
2018-03-14T11:20:39.399Z,7904.00
2018-03-14T11:21:39.373Z,7696.00
2018-03-14T11:22:39.326Z,7484.00
2018-03-14T11:23:39.258Z,7252.00
2018-03-14T11:24:39.205Z,7132.00
2018-03-14T11:25:39.161Z,7132.00
2018-03-14T11:26:39.116Z,6992.00
2018-03-14T11:27:39.089Z,6828.00
2018-03-14T11:28:39.038Z,6712.00
2018-03-14T11:29:38.971Z,6540.00
2018-03-14T11:30:38.924Z,6344.00
2018-03-14T11:31:38.877Z,6172.00
2018-03-14T11:32:38.853Z,6124.00
2018-03-14T11:33:38.783Z,6592.00
2018-03-14T11:34:38.738Z,7480.00
2018-03-14T11:35:38.690Z,8404.00
2018-03-14T11:36:38.639Z,8924.00
2018-03-14T11:37:38.621Z,9216.00
2018-03-14T11:38:38.547Z,9320.00
2018-03-14T11:39:38.500Z,9616.00
2018-03-14T11:40:38.452Z,10120.00
2018-03-14T11:41:38.403Z,10216.00
2018-03-14T11:42:38.378Z,10040.00
2018-03-14T11:43:38.308Z,10220.00
2018-03-14T11:44:38.289Z,10092.00
2018-03-14T11:45:38.215Z,9752.00
2018-03-14T11:46:38.171Z,9532.00
2018-03-14T11:47:38.144Z,9376.00
2018-03-14T11:48:38.122Z,9332.00
2018-03-14T11:49:38.025Z,9396.00
2018-03-14T11:50:37.980Z,9596.00
2018-03-14T11:51:37.928Z,10324.00
2018-03-14T11:52:37.904Z,10076.00
2018-03-14T11:53:37.833Z,9896.00
2018-03-14T11:54:37.793Z,10020.00
2018-03-14T11:55:37.741Z,9828.00
2018-03-14T11:56:37.695Z,9640.00
2018-03-14T11:57:37.667Z,9552.00
2018-03-14T11:58:37.597Z,9768.00
2018-03-14T11:59:37.556Z,9480.00
2018-03-14T12:00:37.506Z,8928.00
2018-03-14T12:01:37.458Z,8576.00
2018-03-14T12:02:37.438Z,8472.00
2018-03-14T12:03:37.366Z,8620.00
2018-03-14T12:04:37.328Z,8852.00
2018-03-14T12:05:37.267Z,8628.00
2018-03-14T12:06:37.224Z,8240.00
2018-03-14T12:07:37.201Z,8020.00
2018-03-14T12:08:37.132Z,7936.00
2018-03-14T12:09:37.082Z,7632.00
2018-03-14T12:10:37.037Z,7128.00
2018-03-14T12:11:36.990Z,6648.00
2018-03-14T12:12:36.965Z,6388.00
2018-03-14T12:13:36.895Z,6344.00
2018-03-14T12:14:36.850Z,6084.00
2018-03-14T12:15:36.802Z,6004.00
2018-03-14T12:16:36.753Z,6248.00
2018-03-14T12:17:36.728Z,7008.00
2018-03-14T12:18:36.665Z,7708.00
2018-03-14T12:19:36.613Z,8024.00
2018-03-14T12:20:36.570Z,8116.00
2018-03-14T12:21:36.521Z,7988.00
2018-03-14T12:22:36.497Z,7920.00
2018-03-14T12:23:36.447Z,8200.00
2018-03-14T12:24:36.376Z,8992.00
2018-03-14T12:25:36.336Z,9416.00
2018-03-14T12:26:36.288Z,9448.00
2018-03-14T12:27:36.262Z,9524.00
2018-03-14T12:28:36.192Z,9620.00
2018-03-14T12:29:36.149Z,9716.00
2018-03-14T12:30:36.100Z,9560.00
2018-03-14T12:31:36.050Z,9244.00
2018-03-14T12:32:36.024Z,8916.00
2018-03-14T12:33:35.959Z,8852.00
2018-03-14T12:34:35.910Z,8640.00
2018-03-14T12:35:35.862Z,8564.00
2018-03-14T12:36:35.820Z,8880.00
2018-03-14T12:37:35.792Z,8920.00
2018-03-14T12:38:35.723Z,8608.00
2018-03-14T12:39:35.677Z,8236.00
2018-03-14T12:40:42.824Z,7852.00